• Join FlightAware (Why Join?)
  • Login
  • US Flag 
11:16PM EDT


 

Airport Tracker/Info


-or-


 

Live Flight TrackerFlight Track Log ✈ N25572 ✈ 18-Jun-2013 ✈ KPBI - KMLB

Flight Track Log - Related Links

Times and Time Zones

All times are in EDT time to prevent confusion due to time zone crossing. See the N25572 flight status page for this flight to view local times or setup timezone preferences in your user account.

Time Position Orientation Groundspeed Altitude Reporting Facility
EDT Latitude Longitude Course Direction KTS MPH feet Rate Location/Type
06:44PM 27.4837 -80.4037 341° North  Level Estimated
06:45PM 27.5187 -80.4173 341° North  Level Estimated
06:46PM 27.5536 -80.4309 341° North  Level Estimated
06:47PM 27.5886 -80.4444 341° North  Level Estimated
06:48PM 27.6236 -80.4580 341° North  Level Estimated
06:49PM 27.6585 -80.4716 341° North  Level Estimated
06:50PM 27.6935 -80.4852 341° North  Level Estimated
06:51PM 27.7285 -80.4989 341° North  Level Estimated
06:52PM 27.7634 -80.5125 341° North  Level Estimated
06:53PM 27.7984 -80.5261 341° North  Level Estimated
06:54PM 27.8333 -80.5398 341° North  Level Estimated
06:54PM 27.1617 -80.1928 341° North 99 114 3,500  Level Miami Center
06:55PM 27.8683 -80.5534 341° North  Level Estimated
06:55PM 27.1908 -80.2053 339° North 99 114 3,600  Level Miami Center
06:56PM 27.9032 -80.5671 341° North  Level Estimated
06:56PM 27.2175 -80.2153 342° North 110 127 3,600  Level Miami Center
06:57PM 27.9382 -80.5807 341° North  Level Estimated
06:57PM 27.2467 -80.2208 350° North 110 127 3,600  Level Miami Center
06:58PM 27.9731 -80.5944 341° North  Level Estimated
06:58PM 27.2694 -80.2333 334° Northwest 105 121 3,500  Level Miami Center
06:59PM 28.0081 -80.6081 341° North  Level Estimated
06:59PM 27.2919 -80.2503 326° Northwest 105 121 3,500  Level Miami Center
07:00PM 27.3208 -80.2650 336° Northwest 105 121 3,500  Level Miami Center
07:01PM 27.3478 -80.2775 338° Northwest 100 115 3,500  Level Miami Center
07:02PM 27.3744 -80.2900 337° Northwest 100 115 3,500  Level Miami Center
07:03PM 27.3994 -80.2978 345° North 100 115 3,500  Level Miami Center
07:04PM 27.4264 -80.3103 338° Northwest 100 115 3,500  Level Miami Center
07:05PM 27.4553 -80.3206 342° North 100 115 3,500  Level Miami Center
07:06PM 27.4822 -80.3261 350° North 95 109 3,600  Climbing Miami Center
07:07PM 27.5050 -80.3386 334° Northwest 95 109 3,500 -60 Descending Miami Center
07:08PM 27.5297 -80.3508 336° Northwest 100 115 3,500  Level Miami Center
07:09PM 27.5586 -80.3683 332° Northwest 100 115 3,500  Level Miami Center
07:10PM 27.5856 -80.3736 350° North 95 109 3,500  Level Miami Center
07:11PM 27.6144 -80.3817 346° North 95 109 3,500  Level Miami Center
07:12PM 27.6394 -80.3869 349° North 95 109 3,500  Level Miami Center
07:13PM 27.6683 -80.3972 343° North 95 109 3,500  Level Miami Center
07:14PM 27.6931 -80.4122 332° Northwest 95 109 3,500  Level Miami Center
07:15PM 27.7178 -80.4269 332° Northwest 95 109 3,500  Level Miami Center
07:17PM 27.7667 -80.4500 337° Northwest 102 117 3,500  Level Orlando TRACON
07:18PM 27.8000 -80.4667 336° Northwest 102 117 3,500  Level Orlando TRACON
07:19PM 27.8167 -80.4667 360° North 98 113 3,500  Level Orlando TRACON
07:20PM 27.8333 -80.4833 319° Northwest 103 119 3,500  Level Orlando TRACON
07:21PM 27.8667 -80.5000 336° Northwest 102 117 3,500  Level Orlando TRACON
07:22PM 27.9000 -80.5167 336° Northwest 103 119 3,500 -60 Level Orlando TRACON
07:23PM 27.9167 -80.5333 319° Northwest 101 116 3,400 -240 Descending Orlando TRACON
07:24PM 27.9500 -80.5500 336° Northwest 109 125 3,100 -480 Descending Orlando TRACON
07:25PM 27.9667 -80.5667 319° Northwest 114 131 2,600 -360 Descending Orlando TRACON
07:26PM 28.0000 -80.5833 336° Northwest 110 127 2,400 -240 Descending Orlando TRACON
07:27PM 28.0167 -80.6000 319° Northwest 110 127 2,200 -300 Descending Orlando TRACON
07:28PM 28.0500 -80.6167 336° Northwest 113 130 1,800 -600 Descending Orlando TRACON
07:29PM 28.0833 -80.6333 336° Northwest 118 136 1,100 -480 Descending Orlando TRACON
07:30PM 28.0833 -80.6667 270° West 101 116 1,000 -180 Descending Orlando TRACON
07:31PM 28.1000 -80.6833 319° Northwest 101 116 800 -240 Descending Orlando TRACON
07:32PM 28.1000 -80.6833 319° Northwest 55 63 500 -300 Descending Orlando TRACON